sensor_id;sensor_type;location;lat;lon;timestamp;pressure;altitude;pressure_sealevel;temperature;humidity
17615;BME280;8926;49.720;6.576;2024-02-14T00:01:26;100013.16;;;8.71;81.01
17615;BME280;8926;49.720;6.576;2024-02-14T00:03:51;100001.81;;;8.72;81.05
17615;BME280;8926;49.720;6.576;2024-02-14T00:06:16;100006.38;;;8.67;81.33
17615;BME280;8926;49.720;6.576;2024-02-14T00:08:41;100001.19;;;8.67;81.40
17615;BME280;8926;49.720;6.576;2024-02-14T00:11:06;99999.47;;;8.66;81.95
17615;BME280;8926;49.720;6.576;2024-02-14T00:13:31;100005.47;;;8.68;82.30
17615;BME280;8926;49.720;6.576;2024-02-14T00:15:59;100006.38;;;8.67;82.08
17615;BME280;8926;49.720;6.576;2024-02-14T00:18:24;100002.03;;;8.68;82.07
17615;BME280;8926;49.720;6.576;2024-02-14T00:20:49;100000.97;;;8.72;81.76
17615;BME280;8926;49.720;6.576;2024-02-14T00:23:15;99995.97;;;8.67;81.73
17615;BME280;8926;49.720;6.576;2024-02-14T00:25:40;99999.47;;;8.66;82.28
17615;BME280;8926;49.720;6.576;2024-02-14T00:28:05;99985.56;;;8.67;82.57
17615;BME280;8926;49.720;6.576;2024-02-14T00:30:30;99988.03;;;8.70;82.13
17615;BME280;8926;49.720;6.576;2024-02-14T00:32:56;99987.25;;;8.68;82.53
17615;BME280;8926;49.720;6.576;2024-02-14T00:35:21;99978.66;;;8.66;82.73
17615;BME280;8926;49.720;6.576;2024-02-14T00:37:46;99983.84;;;8.66;82.43
17615;BME280;8926;49.720;6.576;2024-02-14T00:40:12;99979.63;;;8.64;83.24
17615;BME280;8926;49.720;6.576;2024-02-14T00:42:37;99982.94;;;8.67;83.11
17615;BME280;8926;49.720;6.576;2024-02-14T00:45:02;99981.13;;;8.69;83.12
17615;BME280;8926;49.720;6.576;2024-02-14T00:47:28;99982.88;;;8.69;82.63
17615;BME280;8926;49.720;6.576;2024-02-14T00:49:53;99981.91;;;8.71;82.64
17615;BME280;8926;49.720;6.576;2024-02-14T00:52:18;99972.31;;;8.72;82.93
17615;BME280;8926;49.720;6.576;2024-02-14T00:54:46;99973.16;;;8.72;82.96
17615;BME280;8926;49.720;6.576;2024-02-14T00:57:11;99970.56;;;8.72;83.08
17615;BME280;8926;49.720;6.576;2024-02-14T00:59:37;99974.88;;;8.73;83.45
17615;BME280;8926;49.720;6.576;2024-02-14T01:02:02;99969.50;;;8.76;83.34
17615;BME280;8926;49.720;6.576;2024-02-14T01:04:28;99959.09;;;8.76;82.75
17615;BME280;8926;49.720;6.576;2024-02-14T01:06:53;99960.78;;;8.77;82.90
17615;BME280;8926;49.720;6.576;2024-02-14T01:09:18;99957.41;;;8.75;83.10
17615;BME280;8926;49.720;6.576;2024-02-14T01:11:44;99964.44;;;8.73;83.19
17615;BME280;8926;49.720;6.576;2024-02-14T01:14:09;99967.97;;;8.72;83.37
17615;BME280;8926;49.720;6.576;2024-02-14T01:16:41;99952.34;;;8.72;83.70
17615;BME280;8926;49.720;6.576;2024-02-14T01:19:06;99962.75;;;8.72;83.11
17615;BME280;8926;49.720;6.576;2024-02-14T01:21:31;99961.91;;;8.72;83.70
17615;BME280;8926;49.720;6.576;2024-02-14T01:23:57;99948.81;;;8.73;83.90
17615;BME280;8926;49.720;6.576;2024-02-14T01:26:22;99953.75;;;8.79;83.22
17615;BME280;8926;49.720;6.576;2024-02-14T01:28:48;99951.00;;;8.82;82.80
17615;BME280;8926;49.720;6.576;2024-02-14T01:31:13;99949.38;;;8.80;83.12
17615;BME280;8926;49.720;6.576;2024-02-14T01:33:38;99959.94;;;8.77;83.56
17615;BME280;8926;49.720;6.576;2024-02-14T01:36:05;99962.47;;;8.78;82.98
17615;BME280;8926;49.720;6.576;2024-02-14T01:38:30;99960.66;;;8.80;83.23
17615;BME280;8926;49.720;6.576;2024-02-14T01:40:58;99955.28;;;8.83;83.53
17615;BME280;8926;49.720;6.576;2024-02-14T01:43:23;99956.22;;;8.82;83.37
17615;BME280;8926;49.720;6.576;2024-02-14T01:45:48;99955.13;;;8.87;83.32
17615;BME280;8926;49.720;6.576;2024-02-14T01:48:14;99949.00;;;8.88;83.61
17615;BME280;8926;49.720;6.576;2024-02-14T01:50:43;99955.00;;;8.90;83.12
17615;BME280;8926;49.720;6.576;2024-02-14T01:53:09;99957.59;;;8.90;82.62
17615;BME280;8926;49.720;6.576;2024-02-14T01:55:34;99955.84;;;8.90;82.62
17615;BME280;8926;49.720;6.576;2024-02-14T01:57:59;99948.88;;;8.91;82.59
17615;BME280;8926;49.720;6.576;2024-02-14T02:00:25;99950.06;;;8.83;82.83
17615;BME280;8926;49.720;6.576;2024-02-14T02:02:50;99944.84;;;8.83;83.58
17615;BME280;8926;49.720;6.576;2024-02-14T02:05:15;99955.28;;;8.83;83.36
17615;BME280;8926;49.720;6.576;2024-02-14T02:07:41;99950.91;;;8.84;83.00
17615;BME280;8926;49.720;6.576;2024-02-14T02:10:09;99951.75;;;8.84;83.29
17615;BME280;8926;49.720;6.576;2024-02-14T02:12:35;99950.06;;;8.83;83.48
17615;BME280;8926;49.720;6.576;2024-02-14T02:15:03;99953.50;;;8.84;83.49
17615;BME280;8926;49.720;6.576;2024-02-14T02:17:29;99955.13;;;8.87;83.40
17615;BME280;8926;49.720;6.576;2024-02-14T02:19:54;99953.44;;;8.85;82.82
17615;BME280;8926;49.720;6.576;2024-02-14T02:22:19;99957.97;;;8.82;83.43
17615;BME280;8926;49.720;6.576;2024-02-14T02:24:45;99950.06;;;8.83;83.53
17615;BME280;8926;49.720;6.576;2024-02-14T02:27:11;99955.28;;;8.83;83.20
17615;BME280;8926;49.720;6.576;2024-02-14T02:29:38;99949.06;;;8.86;83.35
17615;BME280;8926;49.720;6.576;2024-02-14T02:32:04;99956.97;;;8.84;83.32
17615;BME280;8926;49.720;6.576;2024-02-14T02:34:31;99953.63;;;8.82;83.64
17615;BME280;8926;49.720;6.576;2024-02-14T02:36:56;99960.66;;;8.80;83.75
17615;BME280;8926;49.720;6.576;2024-02-14T02:39:22;99958.81;;;8.82;84.07
17615;BME280;8926;49.720;6.576;2024-02-14T02:41:47;99956.13;;;8.84;83.93
17615;BME280;8926;49.720;6.576;2024-02-14T02:44:14;99967.25;;;8.88;83.51
17615;BME280;8926;49.720;6.576;2024-02-14T02:46:39;99954.47;;;8.83;83.99
17615;BME280;8926;49.720;6.576;2024-02-14T02:49:05;99962.16;;;8.84;83.97
17615;BME280;8926;49.720;6.576;2024-02-14T02:51:30;99963.88;;;8.85;84.10
17615;BME280;8926;49.720;6.576;2024-02-14T02:53:56;99963.78;;;8.87;84.09
17615;BME280;8926;49.720;6.576;2024-02-14T02:56:22;99971.69;;;8.85;84.87
17615;BME280;8926;49.720;6.576;2024-02-14T02:58:52;99968.03;;;8.90;85.17
17615;BME280;8926;49.720;6.576;2024-02-14T03:01:18;99971.69;;;8.85;85.24
17615;BME280;8926;49.720;6.576;2024-02-14T03:03:43;99977.81;;;8.84;85.32
17615;BME280;8926;49.720;6.576;2024-02-14T03:06:09;99970.91;;;8.83;85.15
17615;BME280;8926;49.720;6.576;2024-02-14T03:08:34;99976.97;;;8.84;85.37
17615;BME280;8926;49.720;6.576;2024-02-14T03:11:06;99973.38;;;8.87;85.14
17615;BME280;8926;49.720;6.576;2024-02-14T03:13:31;99978.66;;;8.85;85.46
17615;BME280;8926;49.720;6.576;2024-02-14T03:15:56;99976.13;;;8.83;85.10
17615;BME280;8926;49.720;6.576;2024-02-14T03:18:23;99972.59;;;8.84;85.08
17615;BME280;8926;49.720;6.576;2024-02-14T03:20:48;99979.66;;;8.82;85.85
17615;BME280;8926;49.720;6.576;2024-02-14T03:23:15;99984.88;;;8.82;86.18
17615;BME280;8926;49.720;6.576;2024-02-14T03:25:40;99983.00;;;8.84;85.96
17615;BME280;8926;49.720;6.576;2024-02-14T03:28:05;99987.31;;;8.85;85.63
17615;BME280;8926;49.720;6.576;2024-02-14T03:30:34;99987.16;;;8.89;86.12
17615;BME280;8926;49.720;6.576;2024-02-14T03:32:59;99990.56;;;8.91;85.54
17615;BME280;8926;49.720;6.576;2024-02-14T03:35:24;99986.25;;;8.90;85.53
17615;BME280;8926;49.720;6.576;2024-02-14T03:37:51;99983.44;;;8.94;85.42
17615;BME280;8926;49.720;6.576;2024-02-14T03:40:18;99981.03;;;8.90;85.46
17615;BME280;8926;49.720;6.576;2024-02-14T03:42:45;99977.81;;;8.84;85.96
17615;BME280;8926;49.720;6.576;2024-02-14T03:45:11;99971.84;;;8.82;85.92
17615;BME280;8926;49.720;6.576;2024-02-14T03:47:36;99972.59;;;8.84;85.61
17615;BME280;8926;49.720;6.576;2024-02-14T03:50:05;99963.88;;;8.85;85.61
17615;BME280;8926;49.720;6.576;2024-02-14T03:52:30;99967.38;;;8.84;85.35
17615;BME280;8926;49.720;6.576;2024-02-14T03:54:59;99966.47;;;8.85;85.88
17615;BME280;8926;49.720;6.576;2024-02-14T03:57:24;99965.78;;;8.82;85.51
17615;BME280;8926;49.720;6.576;2024-02-14T03:59:50;99969.38;;;8.79;86.18
17615;BME280;8926;49.720;6.576;2024-02-14T04:02:15;99976.28;;;8.80;85.74
17615;BME280;8926;49.720;6.576;2024-02-14T04:04:41;99982.28;;;8.82;86.50
17615;BME280;8926;49.720;6.576;2024-02-14T04:07:06;99981.31;;;8.83;86.21
17615;BME280;8926;49.720;6.576;2024-02-14T04:09:33;99985.63;;;8.84;86.44
17615;BME280;8926;49.720;6.576;2024-02-14T04:11:59;99988.09;;;8.88;86.07
17615;BME280;8926;49.720;6.576;2024-02-14T04:14:24;99984.88;;;8.82;87.03
17615;BME280;8926;49.720;6.576;2024-02-14T04:16:49;99988.53;;;8.78;87.26
17615;BME280;8926;49.720;6.576;2024-02-14T04:19:14;99999.84;;;8.77;87.11
17615;BME280;8926;49.720;6.576;2024-02-14T04:21:42;100002.59;;;8.74;87.60
17615;BME280;8926;49.720;6.576;2024-02-14T04:24:07;100004.28;;;8.75;87.59
17615;BME280;8926;49.720;6.576;2024-02-14T04:26:33;100008.06;;;8.68;88.06
17615;BME280;8926;49.720;6.576;2024-02-14T04:28:58;100008.22;;;8.65;87.88
17615;BME280;8926;49.720;6.576;2024-02-14T04:31:23;100008.84;;;8.70;87.90
17615;BME280;8926;49.720;6.576;2024-02-14T04:33:48;100003.84;;;8.66;88.38
17615;BME280;8926;49.720;6.576;2024-02-14T04:36:17;100010.03;;;8.63;88.68
17615;BME280;8926;49.720;6.576;2024-02-14T04:38:43;100009.91;;;8.66;88.24
17615;BME280;8926;49.720;6.576;2024-02-14T04:41:08;100008.34;;;8.62;88.81
17615;BME280;8926;49.720;6.576;2024-02-14T04:43:35;100011.84;;;8.61;88.66
17615;BME280;8926;49.720;6.576;2024-02-14T04:46:00;100001.44;;;8.61;89.07
17615;BME280;8926;49.720;6.576;2024-02-14T04:48:25;100018.63;;;8.65;88.59
17615;BME280;8926;49.720;6.576;2024-02-14T04:50:51;100013.47;;;8.64;88.99
17615;BME280;8926;49.720;6.576;2024-02-14T04:53:17;100019.53;;;8.64;89.02
17615;BME280;8926;49.720;6.576;2024-02-14T04:55:42;100014.25;;;8.66;89.19
17615;BME280;8926;49.720;6.576;2024-02-14T04:58:08;100022.13;;;8.64;89.54
17615;BME280;8926;49.720;6.576;2024-02-14T05:00:33;100023.84;;;8.65;89.65
17615;BME280;8926;49.720;6.576;2024-02-14T05:02:58;100025.66;;;8.63;90.53
17615;BME280;8926;49.720;6.576;2024-02-14T05:05:23;100022.41;;;8.58;91.83
17615;BME280;8926;49.720;6.576;2024-02-14T05:07:48;100022.28;;;8.61;91.42
17615;BME280;8926;49.720;6.576;2024-02-14T05:10:14;100013.97;;;8.53;92.35
17615;BME280;8926;49.720;6.576;2024-02-14T05:12:40;100018.34;;;8.53;92.55
17615;BME280;8926;49.720;6.576;2024-02-14T05:15:05;100010.84;;;8.45;93.42
17615;BME280;8926;49.720;6.576;2024-02-14T05:17:30;100014.50;;;8.41;93.63
17615;BME280;8926;49.720;6.576;2024-02-14T05:19:55;100022.31;;;8.41;94.82
17615;BME280;8926;49.720;6.576;2024-02-14T05:22:21;100022.13;;;8.45;93.57
17615;BME280;8926;49.720;6.576;2024-02-14T05:24:47;100013.38;;;8.46;93.79
17615;BME280;8926;49.720;6.576;2024-02-14T05:27:13;100023.81;;;8.46;94.70
17615;BME280;8926;49.720;6.576;2024-02-14T05:29:38;100021.34;;;8.43;94.63
17615;BME280;8926;49.720;6.576;2024-02-14T05:32:04;100015.22;;;8.44;94.43
17615;BME280;8926;49.720;6.576;2024-02-14T05:34:29;100011.75;;;8.44;94.69
17615;BME280;8926;49.720;6.576;2024-02-14T05:36:54;100011.84;;;8.42;95.24
17615;BME280;8926;49.720;6.576;2024-02-14T05:39:19;100018.66;;;8.45;95.33
17615;BME280;8926;49.720;6.576;2024-02-14T05:41:44;100023.03;;;8.44;95.63
17615;BME280;8926;49.720;6.576;2024-02-14T05:44:10;100031.56;;;8.48;95.68
17615;BME280;8926;49.720;6.576;2024-02-14T05:46:35;100019.19;;;8.53;94.90
17615;BME280;8926;49.720;6.576;2024-02-14T05:49:00;100023.75;;;8.48;95.91
17615;BME280;8926;49.720;6.576;2024-02-14T05:51:26;100029.72;;;8.50;96.04
17615;BME280;8926;49.720;6.576;2024-02-14T05:53:51;100031.41;;;8.51;95.46
17615;BME280;8926;49.720;6.576;2024-02-14T05:56:16;100026.09;;;8.54;95.21
17615;BME280;8926;49.720;6.576;2024-02-14T05:58:41;100029.47;;;8.56;95.43
17615;BME280;8926;49.720;6.576;2024-02-14T06:01:06;100031.16;;;8.57;95.87
17615;BME280;8926;49.720;6.576;2024-02-14T06:03:32;100031.91;;;8.59;95.40
17615;BME280;8926;49.720;6.576;2024-02-14T06:05:57;100041.41;;;8.60;96.87
17615;BME280;8926;49.720;6.576;2024-02-14T06:08:22;100032.56;;;8.64;95.13
17615;BME280;8926;49.720;6.576;2024-02-14T06:10:48;100032.56;;;8.64;95.66
17615;BME280;8926;49.720;6.576;2024-02-14T06:13:14;100032.44;;;8.67;95.26
17615;BME280;8926;49.720;6.576;2024-02-14T06:15:39;100031.50;;;8.68;94.85
17615;BME280;8926;49.720;6.576;2024-02-14T06:18:04;100032.28;;;8.70;95.96
17615;BME280;8926;49.720;6.576;2024-02-14T06:20:29;100034.84;;;8.72;96.14
17615;BME280;8926;49.720;6.576;2024-02-14T06:22:54;100028.66;;;8.74;95.67
17615;BME280;8926;49.720;6.576;2024-02-14T06:25:20;100032.03;;;8.76;95.62
17615;BME280;8926;49.720;6.576;2024-02-14T06:27:45;100035.53;;;8.75;96.09
17615;BME280;8926;49.720;6.576;2024-02-14T06:30:10;100045.97;;;8.75;95.68
17615;BME280;8926;49.720;6.576;2024-02-14T06:32:36;100052.03;;;8.76;96.10
17615;BME280;8926;49.720;6.576;2024-02-14T06:35:01;100052.94;;;8.75;95.86
17615;BME280;8926;49.720;6.576;2024-02-14T06:37:26;100066.75;;;8.77;95.84
17615;BME280;8926;49.720;6.576;2024-02-14T06:39:52;100061.59;;;8.75;96.25
17615;BME280;8926;49.720;6.576;2024-02-14T06:42:17;100065.88;;;8.76;96.45
17615;BME280;8926;49.720;6.576;2024-02-14T06:44:42;100065.09;;;8.74;96.41
17615;BME280;8926;49.720;6.576;2024-02-14T06:47:08;100060.69;;;8.76;96.86
17615;BME280;8926;49.720;6.576;2024-02-14T06:49:33;100060.75;;;8.75;97.58
17615;BME280;8926;49.720;6.576;2024-02-14T06:51:58;100059.91;;;8.74;98.14
17615;BME280;8926;49.720;6.576;2024-02-14T06:54:23;100071.03;;;8.78;97.74
17615;BME280;8926;49.720;6.576;2024-02-14T06:56:48;100067.59;;;8.77;97.38
17615;BME280;8926;49.720;6.576;2024-02-14T06:59:14;100061.59;;;8.75;98.20
17615;BME280;8926;49.720;6.576;2024-02-14T07:01:39;100068.63;;;8.73;97.24
17615;BME280;8926;49.720;6.576;2024-02-14T07:04:04;100071.28;;;8.72;98.33
17615;BME280;8926;49.720;6.576;2024-02-14T07:06:30;100077.47;;;8.69;98.73
17615;BME280;8926;49.720;6.576;2024-02-14T07:08:55;100083.53;;;8.70;98.46
17615;BME280;8926;49.720;6.576;2024-02-14T07:11:20;100079.19;;;8.70;98.64
17615;BME280;8926;49.720;6.576;2024-02-14T07:13:45;100082.69;;;8.69;98.77
17615;BME280;8926;49.720;6.576;2024-02-14T07:16:10;100079.19;;;8.70;98.51
17615;BME280;8926;49.720;6.576;2024-02-14T07:18:36;100081.91;;;8.67;99.30
17615;BME280;8926;49.720;6.576;2024-02-14T07:21:01;100079.19;;;8.70;98.56
17615;BME280;8926;49.720;6.576;2024-02-14T07:23:26;100086.06;;;8.71;99.03
17615;BME280;8926;49.720;6.576;2024-02-14T07:25:52;100084.38;;;8.70;100.00
17615;BME280;8926;49.720;6.576;2024-02-14T07:28:17;100074.69;;;8.74;99.45
17615;BME280;8926;49.720;6.576;2024-02-14T07:30:42;100082.31;;;8.78;100.00
17615;BME280;8926;49.720;6.576;2024-02-14T07:33:08;100087.63;;;8.75;99.14
17615;BME280;8926;49.720;6.576;2024-02-14T07:35:33;100077.22;;;8.75;100.00
17615;BME280;8926;49.720;6.576;2024-02-14T07:37:58;100077.22;;;8.75;99.38
17615;BME280;8926;49.720;6.576;2024-02-14T07:40:23;100079.03;;;8.73;99.85
17615;BME280;8926;49.720;6.576;2024-02-14T07:42:49;100085.16;;;8.72;100.00
17615;BME280;8926;49.720;6.576;2024-02-14T07:45:14;100091.16;;;8.74;99.72
17615;BME280;8926;49.720;6.576;2024-02-14T07:47:39;100086.84;;;8.73;100.00
17615;BME280;8926;49.720;6.576;2024-02-14T07:50:05;100089.47;;;8.73;100.00
17615;BME280;8926;49.720;6.576;2024-02-14T07:52:31;100091.16;;;8.74;100.00
17615;BME280;8926;49.720;6.576;2024-02-14T07:54:56;100097.09;;;8.78;100.00
17615;BME280;8926;49.720;6.576;2024-02-14T07:57:22;100092.72;;;8.78;100.00
17615;BME280;8926;49.720;6.576;2024-02-14T07:59:47;100093.56;;;8.79;100.00
17615;BME280;8926;49.720;6.576;2024-02-14T08:02:13;100095.19;;;8.81;100.00
17615;BME280;8926;49.720;6.576;2024-02-14T08:04:38;100099.19;;;8.89;100.00
17615;BME280;8926;49.720;6.576;2024-02-14T08:07:03;100106.09;;;8.90;100.00
17615;BME280;8926;49.720;6.576;2024-02-14T08:09:29;100105.13;;;8.92;100.00
17615;BME280;8926;49.720;6.576;2024-02-14T08:11:54;100107.66;;;8.94;100.00
17615;BME280;8926;49.720;6.576;2024-02-14T08:14:19;100104.00;;;8.98;100.00
17615;BME280;8926;49.720;6.576;2024-02-14T08:16:44;100110.91;;;8.99;99.48
17615;BME280;8926;49.720;6.576;2024-02-14T08:19:10;100105.56;;;9.02;100.00
17615;BME280;8926;49.720;6.576;2024-02-14T08:21:35;100115.16;;;9.01;99.79
17615;BME280;8926;49.720;6.576;2024-02-14T08:24:01;100102.06;;;9.03;100.00
17615;BME280;8926;49.720;6.576;2024-02-14T08:26:26;100113.13;;;9.08;99.90
17615;BME280;8926;49.720;6.576;2024-02-14T08:28:51;100112.97;;;9.11;100.00
17615;BME280;8926;49.720;6.576;2024-02-14T08:31:16;100112.75;;;9.15;100.00
17615;BME280;8926;49.720;6.576;2024-02-14T08:33:41;100110.09;;;9.17;100.00
17615;BME280;8926;49.720;6.576;2024-02-14T08:36:07;100113.47;;;9.19;100.00
17615;BME280;8926;49.720;6.576;2024-02-14T08:38:33;100118.69;;;9.19;100.00
17615;BME280;8926;49.720;6.576;2024-02-14T08:40:59;100115.16;;;9.20;99.61
17615;BME280;8926;49.720;6.576;2024-02-14T08:43:25;100110.72;;;9.22;99.72
17615;BME280;8926;49.720;6.576;2024-02-14T08:45:50;100108.91;;;9.24;99.80
17615;BME280;8926;49.720;6.576;2024-02-14T08:48:16;100105.25;;;9.28;99.85
17615;BME280;8926;49.720;6.576;2024-02-14T08:50:41;100106.03;;;9.30;99.59
17615;BME280;8926;49.720;6.576;2024-02-14T08:53:07;100104.06;;;9.35;99.91
17615;BME280;8926;49.720;6.576;2024-02-14T08:55:32;100102.19;;;9.37;99.57
17615;BME280;8926;49.720;6.576;2024-02-14T08:57:58;100106.44;;;9.40;99.65
17615;BME280;8926;49.720;6.576;2024-02-14T09:00:23;100107.13;;;9.43;100.00
17615;BME280;8926;49.720;6.576;2024-02-14T09:02:48;100099.94;;;9.48;99.43
17615;BME280;8926;49.720;6.576;2024-02-14T09:05:14;100110.25;;;9.51;99.35
17615;BME280;8926;49.720;6.576;2024-02-14T09:07:39;100110.09;;;9.55;99.73
17615;BME280;8926;49.720;6.576;2024-02-14T09:10:06;100110.81;;;9.58;99.32
17615;BME280;8926;49.720;6.576;2024-02-14T09:12:31;100110.75;;;9.60;99.30
17615;BME280;8926;49.720;6.576;2024-02-14T09:14:57;100115.88;;;9.61;99.13
17615;BME280;8926;49.720;6.576;2024-02-14T09:17:22;100121.91;;;9.62;99.57
17615;BME280;8926;49.720;6.576;2024-02-14T09:19:47;100123.59;;;9.63;98.96
17615;BME280;8926;49.720;6.576;2024-02-14T09:22:13;100116.56;;;9.65;99.42
17615;BME280;8926;49.720;6.576;2024-02-14T09:24:43;100118.13;;;9.69;99.76
17615;BME280;8926;49.720;6.576;2024-02-14T09:27:08;100127.56;;;9.71;98.95
17615;BME280;8926;49.720;6.576;2024-02-14T09:29:34;100127.56;;;9.71;99.46
17615;BME280;8926;49.720;6.576;2024-02-14T09:32:01;100123.03;;;9.75;99.20
17615;BME280;8926;49.720;6.576;2024-02-14T09:34:27;100123.03;;;9.75;99.15
17615;BME280;8926;49.720;6.576;2024-02-14T09:36:52;100128.13;;;9.78;99.12
17615;BME280;8926;49.720;6.576;2024-02-14T09:39:18;100129.69;;;9.82;99.35
17615;BME280;8926;49.720;6.576;2024-02-14T09:41:44;100127.69;;;9.87;98.36
17615;BME280;8926;49.720;6.576;2024-02-14T09:44:09;100130.38;;;9.85;98.17
17615;BME280;8926;49.720;6.576;2024-02-14T09:46:37;100138.28;;;9.84;98.77
17615;BME280;8926;49.720;6.576;2024-02-14T09:49:03;100134.75;;;9.85;100.00
17615;BME280;8926;49.720;6.576;2024-02-14T09:51:28;100139.97;;;9.85;100.00
17615;BME280;8926;49.720;6.576;2024-02-14T09:53:54;100139.78;;;9.88;99.13
17615;BME280;8926;49.720;6.576;2024-02-14T09:56:20;100142.34;;;9.90;99.77
17615;BME280;8926;49.720;6.576;2024-02-14T09:58:47;100156.00;;;9.95;99.84
17615;BME280;8926;49.720;6.576;2024-02-14T10:01:20;100151.50;;;9.98;100.00
17615;BME280;8926;49.720;6.576;2024-02-14T10:03:50;100145.16;;;10.04;100.00
17615;BME280;8926;49.720;6.576;2024-02-14T10:06:15;100145.72;;;10.10;99.49
17615;BME280;8926;49.720;6.576;2024-02-14T10:08:40;100153.28;;;10.15;100.00
17615;BME280;8926;49.720;6.576;2024-02-14T10:11:06;100146.31;;;10.15;100.00
17615;BME280;8926;49.720;6.576;2024-02-14T10:13:32;100150.59;;;10.16;100.00
17615;BME280;8926;49.720;6.576;2024-02-14T10:15:59;100150.50;;;10.19;100.00
17615;BME280;8926;49.720;6.576;2024-02-14T10:18:25;100142.38;;;10.26;100.00
17615;BME280;8926;49.720;6.576;2024-02-14T10:20:52;100146.53;;;10.30;100.00
17615;BME280;8926;49.720;6.576;2024-02-14T10:23:17;100146.38;;;10.33;100.00
17615;BME280;8926;49.720;6.576;2024-02-14T10:25:43;100142.53;;;10.40;100.00
17615;BME280;8926;49.720;6.576;2024-02-14T10:28:08;100147.59;;;10.43;100.00
17615;BME280;8926;49.720;6.576;2024-02-14T10:30:34;100136.06;;;10.47;100.00
17615;BME280;8926;49.720;6.576;2024-02-14T10:32:59;100146.84;;;10.58;100.00
17615;BME280;8926;49.720;6.576;2024-02-14T10:35:25;100139.44;;;10.66;100.00
17615;BME280;8926;49.720;6.576;2024-02-14T10:37:52;100147.28;;;10.66;100.00
17615;BME280;8926;49.720;6.576;2024-02-14T10:40:18;100148.22;;;10.65;100.00
17615;BME280;8926;49.720;6.576;2024-02-14T10:42:45;100142.81;;;10.68;100.00
17615;BME280;8926;49.720;6.576;2024-02-14T10:45:11;100142.69;;;10.71;100.00
17615;BME280;8926;49.720;6.576;2024-02-14T10:47:36;100145.75;;;10.79;100.00
17615;BME280;8926;49.720;6.576;2024-02-14T10:50:04;100144.06;;;10.78;100.00
17615;BME280;8926;49.720;6.576;2024-02-14T10:52:30;100150.13;;;10.79;100.00
17615;BME280;8926;49.720;6.576;2024-02-14T10:54:56;100147.13;;;10.86;100.00
17615;BME280;8926;49.720;6.576;2024-02-14T10:57:22;100154.56;;;10.94;100.00
17615;BME280;8926;49.720;6.576;2024-02-14T10:59:49;100145.56;;;11.00;100.00
17615;BME280;8926;49.720;6.576;2024-02-14T11:02:14;100134.03;;;11.04;100.00
17615;BME280;8926;49.720;6.576;2024-02-14T11:04:39;100133.34;;;11.00;100.00
17615;BME280;8926;49.720;6.576;2024-02-14T11:07:08;100128.63;;;11.07;100.00
17615;BME280;8926;49.720;6.576;2024-02-14T11:09:37;100123.16;;;11.11;100.00
17615;BME280;8926;49.720;6.576;2024-02-14T11:12:03;100132.78;;;11.11;99.49
17615;BME280;8926;49.720;6.576;2024-02-14T11:14:31;100133.72;;;11.10;99.99
17615;BME280;8926;49.720;6.576;2024-02-14T11:16:57;100130.31;;;11.08;100.00
17615;BME280;8926;49.720;6.576;2024-02-14T11:19:29;100125.09;;;11.08;100.00
17615;BME280;8926;49.720;6.576;2024-02-14T11:21:55;100128.63;;;11.07;100.00
17615;BME280;8926;49.720;6.576;2024-02-14T11:24:20;100122.66;;;11.05;100.00
17615;BME280;8926;49.720;6.576;2024-02-14T11:26:51;100122.81;;;11.02;100.00
17615;BME280;8926;49.720;6.576;2024-02-14T11:29:20;100115.88;;;11.01;100.00
17615;BME280;8926;49.720;6.576;2024-02-14T11:31:46;100121.09;;;11.01;100.00
17615;BME280;8926;49.720;6.576;2024-02-14T11:34:12;100115.13;;;10.99;100.00
17615;BME280;8926;49.720;6.576;2024-02-14T11:36:39;100111.56;;;11.00;100.00
17615;BME280;8926;49.720;6.576;2024-02-14T11:39:04;100111.50;;;11.01;100.00
17615;BME280;8926;49.720;6.576;2024-02-14T11:41:31;100115.81;;;11.02;100.00
17615;BME280;8926;49.720;6.576;2024-02-14T11:43:57;100113.59;;;10.95;100.00
17615;BME280;8926;49.720;6.576;2024-02-14T11:46:27;100120.50;;;10.96;100.00
17615;BME280;8926;49.720;6.576;2024-02-14T11:48:54;100113.50;;;10.96;100.00
17615;BME280;8926;49.720;6.576;2024-02-14T11:51:19;100112.56;;;10.97;100.00
17615;BME280;8926;49.720;6.576;2024-02-14T11:53:44;100118.81;;;10.95;100.00
17615;BME280;8926;49.720;6.576;2024-02-14T11:56:09;100116.03;;;10.98;100.00
17615;BME280;8926;49.720;6.576;2024-02-14T11:58:35;100110.56;;;11.02;100.00
17615;BME280;8926;49.720;6.576;2024-02-14T12:01:00;100102.66;;;11.04;100.00
17615;BME280;8926;49.720;6.576;2024-02-14T12:03:29;100100.97;;;11.03;100.00
17615;BME280;8926;49.720;6.576;2024-02-14T12:05:54;100099.28;;;11.02;100.00
17615;BME280;8926;49.720;6.576;2024-02-14T12:08:21;100112.94;;;11.07;100.00
17615;BME280;8926;49.720;6.576;2024-02-14T12:10:47;100115.50;;;11.08;100.00
17615;BME280;8926;49.720;6.576;2024-02-14T12:13:14;100116.50;;;11.06;100.00
17615;BME280;8926;49.720;6.576;2024-02-14T12:15:41;100104.19;;;11.08;100.00
17615;BME280;8926;49.720;6.576;2024-02-14T12:18:07;100100.47;;;11.12;100.00
17615;BME280;8926;49.720;6.576;2024-02-14T12:20:33;100108.31;;;11.12;100.00
17615;BME280;8926;49.720;6.576;2024-02-14T12:22:59;100119.25;;;11.03;100.00
17615;BME280;8926;49.720;6.576;2024-02-14T12:25:25;100111.25;;;11.06;100.00
17615;BME280;8926;49.720;6.576;2024-02-14T12:27:51;100111.88;;;11.11;100.00
17615;BME280;8926;49.720;6.576;2024-02-14T12:30:17;100109.09;;;11.14;100.00
17615;BME280;8926;49.720;6.576;2024-02-14T12:32:42;100104.03;;;11.11;100.00
17615;BME280;8926;49.720;6.576;2024-02-14T12:35:07;100095.41;;;11.09;100.00
17615;BME280;8926;49.720;6.576;2024-02-14T12:37:32;100096.94;;;11.13;100.00
17615;BME280;8926;49.720;6.576;2024-02-14T12:39:58;100089.88;;;11.15;100.00
17615;BME280;8926;49.720;6.576;2024-02-14T12:42:24;100092.88;;;11.23;100.00
17615;BME280;8926;49.720;6.576;2024-02-14T12:44:53;100098.72;;;11.28;100.00
17615;BME280;8926;49.720;6.576;2024-02-14T12:47:19;100094.75;;;11.21;100.00
17615;BME280;8926;49.720;6.576;2024-02-14T12:49:46;100094.56;;;11.24;100.00
17615;BME280;8926;49.720;6.576;2024-02-14T12:52:12;100103.50;;;11.20;100.00
17615;BME280;8926;49.720;6.576;2024-02-14T12:54:37;100096.44;;;11.22;100.00
17615;BME280;8926;49.720;6.576;2024-02-14T12:57:03;100086.72;;;11.24;100.00
17615;BME280;8926;49.720;6.576;2024-02-14T12:59:29;100091.03;;;11.25;100.00